createdAt,value
2022-08-03T00:00:00.192Z,4.2
2022-08-03T00:05:00.113Z,4.2
2022-08-03T00:10:00.132Z,4.4
2022-08-03T00:15:00.128Z,4.4
2022-08-03T00:20:00.166Z,3.2
2022-08-03T00:25:00.117Z,3.2
2022-08-03T00:30:00.572Z,4.4
2022-08-03T00:35:00.121Z,4.4
2022-08-03T00:40:00.138Z,3.3
2022-08-03T00:45:00.117Z,3.3
2022-08-03T00:50:00.272Z,3.1
2022-08-03T00:55:00.146Z,3.1
2022-08-03T01:00:00.255Z,3.3
2022-08-03T01:05:00.098Z,3.3
2022-08-03T01:10:00.106Z,4.1
2022-08-03T01:15:00.105Z,4.1
2022-08-03T01:20:00.150Z,2.9
2022-08-03T01:25:00.124Z,2.9
2022-08-03T01:30:00.115Z,3.5
2022-08-03T01:35:00.097Z,3.5
2022-08-03T01:40:00.109Z,4.8
2022-08-03T01:45:00.124Z,4.8
2022-08-03T01:50:00.130Z,3.3
2022-08-03T01:55:00.108Z,3.3
2022-08-03T02:00:00.167Z,3.3
2022-08-03T02:05:00.110Z,3.3
2022-08-03T02:10:00.116Z,3.8
2022-08-03T02:15:00.854Z,3.8
2022-08-03T02:20:00.152Z,4
2022-08-03T02:25:00.121Z,4
2022-08-03T02:30:00.149Z,3.7
2022-08-03T02:35:00.115Z,3.7
2022-08-03T02:40:00.152Z,3.4
2022-08-03T02:45:00.290Z,3.4
2022-08-03T02:50:00.207Z,3.8
2022-08-03T02:55:00.119Z,3.8
2022-08-03T03:00:00.149Z,4.3
2022-08-03T03:05:54.077Z,4.3
2022-08-03T03:10:00.168Z,6
2022-08-03T03:15:00.140Z,6
2022-08-03T03:20:00.173Z,3
2022-08-03T03:25:00.105Z,3
2022-08-03T03:30:00.167Z,5
2022-08-03T03:35:00.121Z,5
2022-08-03T03:40:00.140Z,4.8
2022-08-03T03:45:00.121Z,4.8
2022-08-03T03:50:00.151Z,4.9
2022-08-03T03:55:01.143Z,4.9
2022-08-03T04:00:00.175Z,4
2022-08-03T04:05:00.130Z,4
2022-08-03T04:10:00.987Z,4.4
2022-08-03T04:15:00.113Z,4.4
2022-08-03T04:20:00.120Z,4
2022-08-03T04:25:00.127Z,4
2022-08-03T04:30:00.145Z,5.2
2022-08-03T04:35:00.124Z,5.2
2022-08-03T04:40:00.166Z,5.5
2022-08-03T04:45:01.554Z,5.5
2022-08-03T04:50:00.114Z,5.6
2022-08-03T04:55:00.136Z,5.6
2022-08-03T05:00:02.885Z,6.6
2022-08-03T05:05:00.146Z,6.6
2022-08-03T05:10:01.917Z,5.2
2022-08-03T05:15:00.156Z,5.2
2022-08-03T05:20:00.113Z,7.2
2022-08-03T05:25:00.166Z,7.2
2022-08-03T05:30:26.511Z,6.7
2022-08-03T05:35:00.121Z,6.7
2022-08-03T05:40:00.158Z,6.5
2022-08-03T05:45:00.163Z,6.5
2022-08-03T05:50:00.152Z,5.1
2022-08-03T05:55:00.435Z,5.1
2022-08-03T06:00:00.152Z,3.8
2022-08-03T06:05:00.107Z,3.8
2022-08-03T06:10:33.702Z,5.4
2022-08-03T06:15:00.115Z,5.4
2022-08-03T06:20:00.160Z,5.8
2022-08-03T06:25:03.671Z,5.8
2022-08-03T06:30:00.186Z,5.7
2022-08-03T06:35:00.140Z,5.7
2022-08-03T06:40:00.139Z,11.6
2022-08-03T06:45:00.120Z,11.6
2022-08-03T06:50:12.514Z,5
2022-08-03T06:55:00.102Z,5
2022-08-03T07:00:07.071Z,6.9
2022-08-03T07:05:00.120Z,6.9
2022-08-03T07:10:00.104Z,4.6
2022-08-03T07:15:01.572Z,4.6
2022-08-03T07:20:00.156Z,4.4
2022-08-03T07:25:00.127Z,4.4
2022-08-03T07:30:00.124Z,6.2
2022-08-03T07:35:00.977Z,6.2
2022-08-03T07:40:00.111Z,5.3
2022-08-03T07:45:00.128Z,5.3
2022-08-03T07:50:00.090Z,5.9
2022-08-03T07:55:00.122Z,5.9
2022-08-03T08:00:02.047Z,6.1
2022-08-03T08:05:05.089Z,6.1
2022-08-03T08:10:00.115Z,6
2022-08-03T08:15:00.155Z,6
2022-08-03T08:20:00.170Z,8.7
2022-08-03T08:25:01.136Z,8.7
2022-08-03T08:30:04.833Z,3.1
2022-08-03T08:35:00.128Z,3.1
2022-08-03T08:40:00.115Z,3
2022-08-03T08:45:00.132Z,3
2022-08-03T08:50:09.565Z,4.4
2022-08-03T08:55:00.338Z,4.4
2022-08-03T09:00:00.121Z,6.2
2022-08-03T09:05:02.986Z,6.2
2022-08-03T09:10:07.620Z,3.6
2022-08-03T09:15:16.249Z,3.6
2022-08-03T09:20:02.782Z,3.8
2022-08-03T09:25:21.936Z,3.8
2022-08-03T09:30:00.158Z,7.6
2022-08-03T09:35:00.113Z,7.6
2022-08-03T09:40:00.150Z,6.5
2022-08-03T09:45:00.137Z,6.5
2022-08-03T09:50:00.111Z,6.2
2022-08-03T09:55:00.122Z,6.2
2022-08-03T10:00:03.232Z,4.3
2022-08-03T10:05:00.109Z,4.3
2022-08-03T10:10:29.300Z,3.3
2022-08-03T10:15:00.122Z,3.3
2022-08-03T10:20:00.128Z,3.7
2022-08-03T10:25:00.124Z,3.7
2022-08-03T10:30:00.144Z,3.1
2022-08-03T10:35:01.831Z,3.1
2022-08-03T10:40:00.152Z,3.9
2022-08-03T10:45:00.126Z,3.9
2022-08-03T10:50:00.133Z,6.8
2022-08-03T10:55:00.151Z,6.8
2022-08-03T11:00:00.148Z,4.8
2022-08-03T11:05:00.117Z,4.8
2022-08-03T11:10:00.140Z,4.4
2022-08-03T11:15:00.115Z,4.4
2022-08-03T11:20:00.158Z,4.8
2022-08-03T11:25:00.131Z,4.8
2022-08-03T11:30:00.148Z,4.4
2022-08-03T11:35:00.113Z,4.4
2022-08-03T11:40:00.265Z,4.7
2022-08-03T11:45:00.113Z,4.7
2022-08-03T11:50:00.134Z,4.3
2022-08-03T11:55:00.108Z,4.3
2022-08-03T12:00:00.130Z,5.6
2022-08-03T12:05:00.095Z,5.6
2022-08-03T12:10:00.107Z,3.3
2022-08-03T12:15:00.143Z,3.3
2022-08-03T12:20:00.149Z,3.5
2022-08-03T12:25:00.125Z,3.5
2022-08-03T12:30:00.144Z,3.8
2022-08-03T12:35:00.551Z,3.8
2022-08-03T12:40:00.799Z,4.3
2022-08-03T12:45:00.129Z,4.3
2022-08-03T12:50:00.128Z,6.1
2022-08-03T12:55:00.163Z,6.1
2022-08-03T13:00:00.129Z,6.3
2022-08-03T13:05:00.121Z,6.3
2022-08-03T13:10:02.746Z,5.8
2022-08-03T13:15:00.150Z,5.8
2022-08-03T13:20:00.141Z,2.9
2022-08-03T13:25:00.115Z,2.9
2022-08-03T13:30:00.124Z,3.7
2022-08-03T13:35:00.132Z,3.7
2022-08-03T13:40:02.303Z,3.7
2022-08-03T13:45:00.153Z,4.2
2022-08-03T13:50:02.681Z,4.2
2022-08-03T13:55:00.341Z,4.1
2022-08-03T14:00:00.128Z,4.1
2022-08-03T14:05:00.117Z,3.7
2022-08-03T14:10:00.165Z,3.7
2022-08-03T14:15:01.639Z,3.8
2022-08-03T14:20:00.114Z,3.8
2022-08-03T14:25:00.125Z,4.4
2022-08-03T14:30:00.169Z,4.4
2022-08-03T14:35:00.117Z,4.7
2022-08-03T14:40:00.855Z,4.7
2022-08-03T14:45:03.551Z,4.3
2022-08-03T14:50:35.185Z,4.3
2022-08-03T14:55:00.116Z,3.7
2022-08-03T15:00:00.205Z,3.7
2022-08-03T15:05:00.138Z,3.9
2022-08-03T15:10:00.188Z,3.9
2022-08-03T15:15:00.123Z,3.8
2022-08-03T15:20:24.299Z,3.8
2022-08-03T15:25:00.120Z,3.2
2022-08-03T15:30:04.692Z,3.2
2022-08-03T15:35:00.127Z,5
2022-08-03T15:40:00.893Z,5
2022-08-03T15:45:00.157Z,4.2
2022-08-03T15:50:00.156Z,4.2
2022-08-03T15:55:00.143Z,3.6
2022-08-03T16:00:00.130Z,3.6
2022-08-03T16:05:00.112Z,4.6
2022-08-03T16:10:00.123Z,4.6
2022-08-03T16:15:00.119Z,3.8
2022-08-03T16:20:00.127Z,3.8
2022-08-03T16:25:00.122Z,3.3
2022-08-03T16:30:00.275Z,3.3
2022-08-03T16:35:00.122Z,4.7
2022-08-03T16:40:00.131Z,4.7
2022-08-03T16:45:00.123Z,3.3
2022-08-03T16:50:00.630Z,3.3
2022-08-03T16:55:00.117Z,5
2022-08-03T17:00:00.149Z,5
2022-08-03T17:05:00.104Z,3.3
2022-08-03T17:10:00.198Z,3.3
2022-08-03T17:15:00.113Z,4.3
2022-08-03T17:20:00.124Z,4.3
2022-08-03T17:25:00.120Z,3.6
2022-08-03T17:30:00.137Z,3.6
2022-08-03T17:35:00.122Z,3.2
2022-08-03T17:40:00.218Z,3.2
2022-08-03T17:45:01.864Z,3.7
2022-08-03T17:50:00.109Z,3.7
2022-08-03T17:55:51.061Z,3.3
2022-08-03T18:00:00.120Z,3.3
2022-08-03T18:05:00.587Z,4.6
2022-08-03T18:10:02.936Z,4.6
2022-08-03T18:15:00.989Z,5.1
2022-08-03T18:20:00.844Z,5.1
2022-08-03T18:25:00.142Z,4.7
2022-08-03T18:30:00.149Z,4.7
2022-08-03T18:35:00.097Z,9.6
2022-08-03T18:40:00.198Z,9.6
2022-08-03T18:45:00.133Z,3.4
2022-08-03T18:50:00.167Z,3.4
2022-08-03T18:55:04.613Z,4.6
2022-08-03T19:00:00.178Z,4.6
2022-08-03T19:05:00.107Z,4
2022-08-03T19:10:00.114Z,4
2022-08-03T19:15:00.122Z,4.7
2022-08-03T19:20:01.384Z,4.7
2022-08-03T19:25:00.110Z,4.3
2022-08-03T19:30:02.953Z,4.3
2022-08-03T19:35:00.271Z,6
2022-08-03T19:40:00.145Z,6
2022-08-03T19:45:00.102Z,6
2022-08-03T19:50:04.691Z,6
2022-08-03T19:55:00.148Z,5.6
2022-08-03T20:00:03.258Z,5.6
2022-08-03T20:05:00.482Z,5
2022-08-03T20:10:00.213Z,5
2022-08-03T20:15:00.112Z,6.7
2022-08-03T20:20:00.132Z,6.7
2022-08-03T20:25:00.111Z,5.4
2022-08-03T20:30:07.055Z,5.4
2022-08-03T20:35:00.126Z,6.8
2022-08-03T20:40:00.185Z,6.8
2022-08-03T20:45:04.985Z,4.5
2022-08-03T20:50:00.157Z,4.5
2022-08-03T20:55:00.105Z,5.5
2022-08-03T21:00:00.157Z,5.5
2022-08-03T21:05:03.173Z,6.4
2022-08-03T21:10:00.150Z,6.4
2022-08-03T21:15:00.191Z,5.1
2022-08-03T21:20:00.154Z,5.1
2022-08-03T21:25:00.140Z,4.5
2022-08-03T21:30:00.203Z,4.5
2022-08-03T21:35:00.147Z,6.1
2022-08-03T21:40:00.311Z,6.1
2022-08-03T21:45:00.142Z,4.2
2022-08-03T21:50:05.936Z,4.2
2022-08-03T21:55:00.127Z,4.8
2022-08-03T22:00:00.177Z,4.8
2022-08-03T22:05:00.153Z,5.7
2022-08-03T22:10:00.166Z,5.7
2022-08-03T22:15:01.758Z,4.6
2022-08-03T22:20:00.132Z,4.6
2022-08-03T22:25:00.104Z,5.6
2022-08-03T22:30:00.150Z,5.6
2022-08-03T22:35:00.114Z,6.8
2022-08-03T22:40:00.172Z,6.8
2022-08-03T22:45:00.129Z,6.1
2022-08-03T22:50:30.858Z,6.1
2022-08-03T22:55:00.101Z,4.1
2022-08-03T23:00:00.141Z,4.1
2022-08-03T23:05:00.109Z,3.9
2022-08-03T23:10:00.140Z,3.9
2022-08-03T23:15:00.111Z,4.5
2022-08-03T23:20:00.166Z,4.5
2022-08-03T23:25:00.138Z,6
2022-08-03T23:30:00.186Z,6
2022-08-03T23:35:00.133Z,4.3
2022-08-03T23:40:00.145Z,4.3
2022-08-03T23:45:05.561Z,5.1
2022-08-03T23:50:00.141Z,5.1
2022-08-03T23:55:00.113Z,5.6
